Palm Coast — WDC9152 — position and weather

sailwx.info

Track history (hours):
 
Tides and Currents Weather Stations Pressure Air Temp Water Temp Dewpoint Dewpoint Depression Visibility Wind Speed Wind Dir Waves Ship Positions

Palm Coast

Owner: Dann Marine Towing, LC, Chesapeake City, MD. More information available from US FCC via Universal Licensing System and Coast Guard Vessel Documentation Center.

Last reported at 2017-Oct-18 17:57 UTC. Time now 2017-Oct-18 18:15 UTC.
Position N 40°05' W 074°52'.

; draft 3 m.

Type: Tug. MMSI: 367098270.

Date/timePositionNaut miles runAvg speedWind from/ knotsBaromVisibWave heightAir tempDewpointWater temp
2017-Oct-18 17:57N 40°05' W 074°52'0 0.0
2017-Oct-18 17:09N 40°05' W 074°52'0 0.0
2017-Oct-18 16:45N 40°05' W 074°52'0 0.0
2017-Oct-18 15:36N 40°05' W 074°52'0 0.0
2017-Oct-18 15:30N 40°05' W 074°52'0 0.0
2017-Oct-18 14:51N 40°05' W 074°52'0 0.0
2017-Oct-18 13:57N 40°05' W 074°52'0 0.0
2017-Oct-18 13:24N 40°05' W 074°52'0 0.0
2017-Oct-18 13:00N 40°05' W 074°52'0 0.0
2017-Oct-18 12:30N 40°05' W 074°52'0 0.0
2017-Oct-18 12:00N 40°05' W 074°52'0 0.0
2017-Oct-18 11:24N 40°05' W 074°52'0 0.0
2017-Oct-18 11:00N 40°05' W 074°52'0 0.0
2017-Oct-18 10:30N 40°05' W 074°52'0 0.0
2017-Oct-18 08:24N 40°05' W 074°52'0 0.0
2017-Oct-18 08:00N 40°05' W 074°52'0 0.0
2017-Oct-18 06:15N 40°05' W 074°52'0 0.0
2017-Oct-18 06:00N 40°05' W 074°52'0 0.0
2017-Oct-18 05:14N 40°05' W 074°52'0 0.4
2017-Oct-18 05:01N 40°05' W 074°53'3 6.7
2017-Oct-18 04:30N 40°04' W 074°57'4 8.4
2017-Oct-18 03:59N 40°01' W 075°01'4 8.2
2017-Oct-18 03:30N 39°59' W 075°05'4 7.5
2017-Oct-18 03:01N 39°56' W 075°08'0 0.3
2017-Oct-18 02:29N 39°55' W 075°08'0 0.0
2017-Oct-18 01:59N 39°55' W 075°08'0 0.0
2017-Oct-18 01:29N 39°55' W 075°08'0 0.0
2017-Oct-18 00:59N 39°55' W 075°08'1 1.2
2017-Oct-18 00:30N 39°56' W 075°08'0 0.1
2017-Oct-18 00:00N 39°56' W 075°08'0 0.0
2017-Oct-17 23:30N 39°56' W 075°08'0 0.0
2017-Oct-17 23:00N 39°56' W 075°08'0 0.0
2017-Oct-17 22:30N 39°56' W 075°08'0 0.0
2017-Oct-17 22:01N 39°56' W 075°08'0 0.0
2017-Oct-17 21:30N 39°56' W 075°08'0 0.0
2017-Oct-17 21:00N 39°56' W 075°08'0 0.0
2017-Oct-17 20:30N 39°56' W 075°08'0 0.0
2017-Oct-17 20:00N 39°56' W 075°08'0 0.0
2017-Oct-17 19:30N 39°56' W 075°08'0 0.0
2017-Oct-17 19:00N 39°56' W 075°08'0 0.1
2017-Oct-17 18:30N 39°56' W 075°08'0 0.3
2017-Oct-17 18:01N 39°56' W 075°08'0 0.1
2017-Oct-17 17:31N 39°56' W 075°08'0 0.0
2017-Oct-17 17:01N 39°56' W 075°08'0 0.0
2017-Oct-17 16:31N 39°56' W 075°08'0 0.9
2017-Oct-17 16:00N 39°56' W 075°08'3 6.1
2017-Oct-17 15:31N 39°53' W 075°09'4 7.1
2017-Oct-17 15:01N 39°52' W 075°14'4 7.4
2017-Oct-17 14:31N 39°51' W 075°19'4 8.3
2017-Oct-17 14:01N 39°49' W 075°23'5 9.2
2017-Oct-17 13:31N 39°46' W 075°28'5 9.5
2017-Oct-17 13:01N 39°42' W 075°31'5 9.2
2017-Oct-17 12:30N 39°38' W 075°34'4 8.3
2017-Oct-17 12:01N 39°34' W 075°33'4 7.4
2017-Oct-17 11:30N 39°33' W 075°38'4 8.2
2017-Oct-17 11:00N 39°33' W 075°43'4 8.6
2017-Oct-17 10:30N 39°32' W 075°49'4 8.4
2017-Oct-17 10:00N 39°31' W 075°54'4 8.3
2017-Oct-17 09:30N 39°28' W 075°58'4 8.1
2017-Oct-17 09:00N 39°25' W 076°02'4 7.8
2017-Oct-17 08:30N 39°23' W 076°06'4 7.8
2017-Oct-17 08:00N 39°21' W 076°10'4 7.4
2017-Oct-17 07:30N 39°18' W 076°13'4 7.3
2017-Oct-17 07:00N 39°14' W 076°14'4 7.0
2017-Oct-17 06:30N 39°11' W 076°17'4 6.5
2017-Oct-17 05:58N 39°09' W 076°20'3 7.0
2017-Oct-17 05:30N 39°10' W 076°24'4 7.4
2017-Oct-17 05:00N 39°11' W 076°28'4 7.4
2017-Oct-17 04:30N 39°13' W 076°32'2 4.8
2017-Oct-17 04:01N 39°15' W 076°34'0 0.0
2017-Oct-17 03:31N 39°15' W 076°34'0 0.0
2017-Oct-17 02:59N 39°15' W 076°34'0 0.0
2017-Oct-17 02:20N 39°15' W 076°34'0 0.0
2017-Oct-17 01:59N 39°15' W 076°34'0 0.0
2017-Oct-17 01:29N 39°15' W 076°34'0 0.0
2017-Oct-17 00:59N 39°15' W 076°34'0 0.0
2017-Oct-17 00:29N 39°15' W 076°34'0 0.0
2017-Oct-16 23:50N 39°15' W 076°34'0 0.0
2017-Oct-16 23:26N 39°15' W 076°34'0 0.0
2017-Oct-16 23:00N 39°15' W 076°34'0 0.0
2017-Oct-16 22:26N 39°15' W 076°34'0 0.0
2017-Oct-16 21:53N 39°15' W 076°34'0 0.0
2017-Oct-16 21:26N 39°15' W 076°34'0 0.0
2017-Oct-16 20:29N 39°15' W 076°34'0 0.0
2017-Oct-16 19:44N 39°15' W 076°34'0 0.0
2017-Oct-16 19:14N 39°15' W 076°34'0 0.0
2017-Oct-16 18:53N 39°15' W 076°34'0 0.0
2017-Oct-16 18:30N 39°15' W 076°34'0 0.0
2017-Oct-16 17:59N 39°15' W 076°34'0 0.0
2017-Oct-16 17:14N 39°15' W 076°34'0 0.0
2017-Oct-16 16:59N 39°15' W 076°34'0 0.0
2017-Oct-16 16:26N 39°15' W 076°34'0 0.0
2017-Oct-16 15:56N 39°15' W 076°34'0 0.0
2017-Oct-16 15:20N 39°15' W 076°34'0 0.0
2017-Oct-16 14:38N 39°15' W 076°34'0 0.0
2017-Oct-16 13:41N 39°15' W 076°34'0 0.0
2017-Oct-16 13:26N 39°15' W 076°34'0 0.0
2017-Oct-16 12:56N 39°15' W 076°34'0 0.0
2017-Oct-16 12:17N 39°15' W 076°34'0 0.0
2017-Oct-16 11:59N 39°15' W 076°34'0 0.5
2017-Oct-16 11:30N 39°15' W 076°34'1 1.3
2017-Oct-16 10:57N 39°15' W 076°33'0 0.0
2017-Oct-16 10:30N 39°15' W 076°33'0 0.0
2017-Oct-16 10:00N 39°15' W 076°33'0 0.0
2017-Oct-16 09:30N 39°15' W 076°33'0 0.0
2017-Oct-16 09:00N 39°15' W 076°33'0 0.0
2017-Oct-16 08:30N 39°15' W 076°33'0 0.0
2017-Oct-16 08:00N 39°15' W 076°33'0 0.0
2017-Oct-16 07:27N 39°15' W 076°33'0 0.0
2017-Oct-16 07:00N 39°15' W 076°33'0 0.0
2017-Oct-16 06:30N 39°15' W 076°33'1 2.1
2017-Oct-16 06:01N 39°15' W 076°34'0 0.1
2017-Oct-16 05:28N 39°15' W 076°34'0 0.0
2017-Oct-16 04:58N 39°15' W 076°34'0 0.0
2017-Oct-16 04:28N 39°15' W 076°34'0 0.0
2017-Oct-16 03:58N 39°15' W 076°34'0 0.0
2017-Oct-16 03:28N 39°15' W 076°34'0 0.0
2017-Oct-16 02:58N 39°15' W 076°34'0 0.0
2017-Oct-16 02:28N 39°15' W 076°34'0 0.0
2017-Oct-16 01:58N 39°15' W 076°34'0 0.0
2017-Oct-16 01:28N 39°15' W 076°34'0 0.0
2017-Oct-16 00:58N 39°15' W 076°34'0 0.0
2017-Oct-16 00:28N 39°15' W 076°34'0 0.0
2017-Oct-15 23:58N 39°15' W 076°34'0 0.0
2017-Oct-15 23:28N 39°15' W 076°34'0 0.0
2017-Oct-15 22:58N 39°15' W 076°34'1 2.3
2017-Oct-15 22:29N 39°16' W 076°33'0 0.0
2017-Oct-15 21:50N 39°16' W 076°33'0 0.0
2017-Oct-15 21:26N 39°16' W 076°33'0 0.0
2017-Oct-15 20:44N 39°16' W 076°33'0 0.0
2017-Oct-15 20:17N 39°16' W 076°33'0 0.0
2017-Oct-15 19:56N 39°16' W 076°33'0 0.0
2017-Oct-15 19:26N 39°16' W 076°33'0 0.0
2017-Oct-15 18:56N 39°15' W 076°33'0 0.1
2017-Oct-15 18:29N 39°16' W 076°33'0 0.0
2017-Oct-15 17:17N 39°16' W 076°33'0 0.0
2017-Oct-15 16:56N 39°16' W 076°33'0 0.1
2017-Oct-15 16:29N 39°16' W 076°33'0 0.1
2017-Oct-15 15:59N 39°16' W 076°33'0 0.0
2017-Oct-15 15:29N 39°16' W 076°33'0 0.0
2017-Oct-15 14:53N 39°16' W 076°33'0 0.0
2017-Oct-15 13:59N 39°16' W 076°33'0 0.0
2017-Oct-15 13:20N 39°16' W 076°33'0 0.0
2017-Oct-15 12:59N 39°16' W 076°33'0 0.0
2017-Oct-15 12:23N 39°16' W 076°33'0 0.0
2017-Oct-15 11:44N 39°16' W 076°33'0 0.0
2017-Oct-15 11:20N 39°16' W 076°33'0 0.0
2017-Oct-15 10:59N 39°16' W 076°33'0 0.0
2017-Oct-15 10:29N 39°16' W 076°33'0 0.0
2017-Oct-15 09:59N 39°16' W 076°33'0 0.0
2017-Oct-15 09:29N 39°16' W 076°33'0 0.0
2017-Oct-15 08:59N 39°16' W 076°33'0 0.0
2017-Oct-15 08:29N 39°16' W 076°33'0 0.0
2017-Oct-15 07:59N 39°16' W 076°33'0 0.0
2017-Oct-15 07:29N 39°16' W 076°33'0 0.0
2017-Oct-15 06:59N 39°16' W 076°33'0 0.0
2017-Oct-15 06:29N 39°16' W 076°33'0 0.0
2017-Oct-15 05:59N 39°16' W 076°33'0 0.0
2017-Oct-15 05:29N 39°16' W 076°33'0 0.0
2017-Oct-15 04:59N 39°16' W 076°33'0 0.0
2017-Oct-15 04:29N 39°16' W 076°33'0 0.0
2017-Oct-15 03:59N 39°16' W 076°33'0 0.0
2017-Oct-15 03:29N 39°16' W 076°33'0 0.0
2017-Oct-15 02:59N 39°16' W 076°33'0 0.0
2017-Oct-15 02:29N 39°16' W 076°33'0 0.0
2017-Oct-15 01:59N 39°16' W 076°33'0 0.0
2017-Oct-15 01:29N 39°16' W 076°33'0 0.0
2017-Oct-15 00:59N 39°16' W 076°33'0 0.0
2017-Oct-15 00:29N 39°16' W 076°33'0 0.0
2017-Oct-14 23:59N 39°16' W 076°33'0 0.0
2017-Oct-14 23:29N 39°16' W 076°33'0 0.0
2017-Oct-14 22:59N 39°16' W 076°33'0 0.0
2017-Oct-14 22:26N 39°16' W 076°33'0 0.0
2017-Oct-14 21:59N 39°16' W 076°33'0 0.0
2017-Oct-14 21:29N 39°16' W 076°33'0 0.0
2017-Oct-14 20:59N 39°16' W 076°33'0 0.0
2017-Oct-14 20:29N 39°16' W 076°33'0 0.0
2017-Oct-14 19:59N 39°16' W 076°33'0 0.0
2017-Oct-14 19:29N 39°16' W 076°33'0 0.0
2017-Oct-14 18:59N 39°16' W 076°33'0 0.0
2017-Oct-14 18:29N 39°16' W 076°33'0 0.0
2017-Oct-14 17:59N 39°16' W 076°33'0 0.0
2017-Oct-14 17:29N 39°16' W 076°33'0 0.0
2017-Oct-14 16:59N 39°16' W 076°33'0 0.0
2017-Oct-14 16:29N 39°15' W 076°33'0 0.0
2017-Oct-14 15:59N 39°16' W 076°33'0 0.0
2017-Oct-14 15:29N 39°16' W 076°33'0 0.0
2017-Oct-14 14:59N 39°16' W 076°33'0 0.0
2017-Oct-14 14:29N 39°16' W 076°33'2 3.6
2017-Oct-14 14:00N 39°16' W 076°36'0 0.6
2017-Oct-14 13:29N 39°16' W 076°36'2 3.5
2017-Oct-14 12:59N 39°15' W 076°34'0 0.0
2017-Oct-14 12:29N 39°15' W 076°34'0 0.0
2017-Oct-14 11:56N 39°15' W 076°34'0 0.0
2017-Oct-14 11:29N 39°15' W 076°34'0 0.0
2017-Oct-14 10:59N 39°15' W 076°34'0 0.0
2017-Oct-14 10:29N 39°15' W 076°34'0 0.0
2017-Oct-14 09:59N 39°15' W 076°34'0 0.0
2017-Oct-14 09:29N 39°15' W 076°34'0 0.0
2017-Oct-14 08:59N 39°15' W 076°34'0 0.0
2017-Oct-14 08:29N 39°15' W 076°34'0 0.0
2017-Oct-14 07:44N 39°15' W 076°34'0 0.0
2017-Oct-14 07:20N 39°15' W 076°34'0 0.0
2017-Oct-14 06:50N 39°15' W 076°34'0 0.0
2017-Oct-14 06:26N 39°15' W 076°34'1 2.3
2017-Oct-14 05:57N 39°16' W 076°33'0 0.0
2017-Oct-14 05:30N 39°16' W 076°33'0 0.0
2017-Oct-14 05:00N 39°16' W 076°33'0 0.0
2017-Oct-14 04:30N 39°16' W 076°33'0 0.0
2017-Oct-14 03:57N 39°16' W 076°33'0 0.0
2017-Oct-14 03:30N 39°16' W 076°33'0 0.0
2017-Oct-14 03:00N 39°16' W 076°33'0 0.0
2017-Oct-14 02:18N 39°16' W 076°33'0 0.0
2017-Oct-13 22:27N 39°16' W 076°33'0 0.0
2017-Oct-13 22:00N 39°16' W 076°33'0 0.0
2017-Oct-13 21:30N 39°16' W 076°33'0 0.0
2017-Oct-13 21:00N 39°16' W 076°33'0 0.0
2017-Oct-13 20:30N 39°16' W 076°33'0 0.0
2017-Oct-13 19:51N 39°16' W 076°33'0 0.0
2017-Oct-13 19:30N 39°16' W 076°33'0 0.0
2017-Oct-13 19:00N 39°16' W 076°33'0 0.0
2017-Oct-13 18:30N 39°16' W 076°33'0 0.0
2017-Oct-13 18:00N 39°16' W 076°33'0 0.0
2017-Oct-13 17:30N 39°16' W 076°33'1 2.0
2017-Oct-13 16:55N 39°15' W 076°34'0 0.0
2017-Oct-13 16:28N 39°15' W 076°34'0 0.0
2017-Oct-13 15:58N 39°15' W 076°34'0 0.0
2017-Oct-13 15:28N 39°15' W 076°34'0 0.0
2017-Oct-13 14:58N 39°15' W 076°34'0 0.0
2017-Oct-13 14:28N 39°15' W 076°34'0 0.8
2017-Oct-13 14:00N 39°15' W 076°34'1 1.5
2017-Oct-13 13:29N 39°16' W 076°33'0 0.0
2017-Oct-13 12:59N 39°16' W 076°33'0 0.0
2017-Oct-13 12:29N 39°16' W 076°33'0 0.0
2017-Oct-13 11:59N 39°16' W 076°33'0 0.0
2017-Oct-13 11:29N 39°16' W 076°33'0 0.0
2017-Oct-13 10:59N 39°16' W 076°33'0 0.0
2017-Oct-13 10:29N 39°16' W 076°33'0 0.0
2017-Oct-13 09:59N 39°16' W 076°33'0 0.0
2017-Oct-13 09:29N 39°16' W 076°33'0 0.0
2017-Oct-13 08:59N 39°16' W 076°33'0 0.0
2017-Oct-13 08:29N 39°16' W 076°33'0 0.1
2017-Oct-13 07:59N 39°16' W 076°33'0 0.1
2017-Oct-13 07:29N 39°16' W 076°33'0 0.0
2017-Oct-13 06:59N 39°16' W 076°33'0 0.0
2017-Oct-13 06:29N 39°16' W 076°33'0 0.0
2017-Oct-13 05:59N 39°16' W 076°33'0 0.0
2017-Oct-13 05:29N 39°16' W 076°33'0 0.0
2017-Oct-13 04:59N 39°16' W 076°33'0 0.0
2017-Oct-13 04:29N 39°16' W 076°33'0 0.0
2017-Oct-12 14:39N 39°16' W 076°33'0 0.0
2017-Oct-12 14:30N 39°16' W 076°33'0 0.0
2017-Oct-12 14:00N 39°16' W 076°33'0 0.0
2017-Oct-12 13:30N 39°16' W 076°33'0 0.0
2017-Oct-12 13:00N 39°16' W 076°33'0 0.0
2017-Oct-12 12:24N 39°16' W 076°33'0 0.0
2017-Oct-12 11:36N 39°16' W 076°33'0 0.1
2017-Oct-12 11:30N 39°16' W 076°33'1 1.8
2017-Oct-12 10:56N 39°15' W 076°34'0 1.0
2017-Oct-12 10:30N 39°15' W 076°34'1 1.2
2017-Oct-12 10:00N 39°15' W 076°33'0 0.3
2017-Oct-12 09:30N 39°15' W 076°33'0 0.0
2017-Oct-12 09:00N 39°15' W 076°33'0 0.0
2017-Oct-12 08:27N 39°15' W 076°33'0 0.0
2017-Oct-12 07:57N 39°15' W 076°33'0 0.0
2017-Oct-12 07:30N 39°15' W 076°33'0 0.0
2017-Oct-12 06:57N 39°15' W 076°33'0 0.1
2017-Oct-12 06:27N 39°15' W 076°33'0 0.0
2017-Oct-12 05:57N 39°15' W 076°33'0 0.0
2017-Oct-12 05:30N 39°15' W 076°33'0 0.0
2017-Oct-12 04:57N 39°15' W 076°33'0 0.0
2017-Oct-12 04:30N 39°15' W 076°33'0 0.0
2017-Oct-12 03:57N 39°15' W 076°33'0 0.0
2017-Oct-12 03:30N 39°15' W 076°33'0 0.0
2017-Oct-12 03:00N 39°15' W 076°33'0 0.0
2017-Oct-12 02:30N 39°15' W 076°33'0 0.0
2017-Oct-12 02:00N 39°15' W 076°33'0 0.0
2017-Oct-12 01:27N 39°15' W 076°33'0 0.0
2017-Oct-12 01:00N 39°15' W 076°33'0 0.0
2017-Oct-12 00:30N 39°15' W 076°33'0 0.0
2017-Oct-12 00:00N 39°15' W 076°33'0 0.0
2017-Oct-11 23:30N 39°15' W 076°33'0 0.0
2017-Oct-11 23:00N 39°15' W 076°33'0 0.0
2017-Oct-11 22:24N 39°15' W 076°33'0 0.0
2017-Oct-11 22:00N 39°15' W 076°33'0 0.0
2017-Oct-11 21:27N 39°15' W 076°33'0 0.0
2017-Oct-11 21:00N 39°15' W 076°33'0 0.0
2017-Oct-11 20:30N 39°15' W 076°33'0 0.0
2017-Oct-11 20:00N 39°15' W 076°33'0 0.0
2017-Oct-11 19:30N 39°15' W 076°33'0 0.0
2017-Oct-11 19:00N 39°15' W 076°33'0 0.0
2017-Oct-11 18:27N 39°15' W 076°33'0 0.0
2017-Oct-11 18:00N 39°15' W 076°33'0 0.0
2017-Oct-11 17:30N 39°15' W 076°33'0 0.0
2017-Oct-11 17:00N 39°15' W 076°33'92 4.0
2017-Oct-10 17:57N 40°05' W 074°52'0 0.0
2017-Oct-10 17:27N 40°05' W 074°52'0 0.0
2017-Oct-10 17:00N 40°05' W 074°52'0 0.0
2017-Oct-10 16:27N 40°05' W 074°52'0 0.0
2017-Oct-10 15:57N 40°05' W 074°52'0 0.0
2017-Oct-10 15:27N 40°05' W 074°52'0 0.0
2017-Oct-10 14:45N 40°05' W 074°52'0 0.0
2017-Oct-10 13:57N 40°05' W 074°52'0 0.0
2017-Oct-10 13:12N 40°05' W 074°52'0 0.0
2017-Oct-10 12:51N 40°05' W 074°52'0 0.0
2017-Oct-10 12:27N 40°05' W 074°52'0 0.0
2017-Oct-10 12:00N 40°05' W 074°52'0 0.0
2017-Oct-10 11:30N 40°05' W 074°52'0 0.0
2017-Oct-10 09:22N 40°05' W 074°52'0 0.2
2017-Oct-10 09:00N 40°05' W 074°53'3 5.0
2017-Oct-10 08:30N 40°04' W 074°56'3 6.8
2017-Oct-10 08:01N 40°02' W 074°59'3 7.0
2017-Oct-10 07:31N 40°00' W 075°03'4 7.4
2017-Oct-10 07:00N 39°58' W 075°07'2 4.2
2017-Oct-10 06:31N 39°56' W 075°08'0 0.1
2017-Oct-10 05:59N 39°56' W 075°08'0 0.3
2017-Oct-10 05:29N 39°56' W 075°08'0 0.1
2017-Oct-10 04:59N 39°56' W 075°08'0 0.0
2017-Oct-10 04:29N 39°56' W 075°08'0 0.0
2017-Oct-10 03:59N 39°56' W 075°08'0 0.0
2017-Oct-10 03:29N 39°56' W 075°08'0 0.0
2017-Oct-10 02:59N 39°56' W 075°08'0 0.0
2017-Oct-10 02:29N 39°56' W 075°08'0 0.0
2017-Oct-10 01:59N 39°56' W 075°08'0 0.0
2017-Oct-10 01:29N 39°56' W 075°08'0 0.0
2017-Oct-10 00:59N 39°56' W 075°08'0 0.0
2017-Oct-10 00:29N 39°56' W 075°08'0 0.0
2017-Oct-09 23:59N 39°56' W 075°08'0 0.0
2017-Oct-09 23:29N 39°56' W 075°08'0 0.1
2017-Oct-09 22:59N 39°56' W 075°08'0 0.3
2017-Oct-09 22:29N 39°56' W 075°08'0 0.1
2017-Oct-09 21:59N 39°56' W 075°08'0 0.0
2017-Oct-09 21:29N 39°56' W 075°08'0 0.0
2017-Oct-09 20:59N 39°56' W 075°08'0 0.0
2017-Oct-09 20:29N 39°56' W 075°08'0 0.0
2017-Oct-09 19:59N 39°56' W 075°08'0 0.0
2017-Oct-09 19:29N 39°56' W 075°08'0 0.0
2017-Oct-09 18:59N 39°56' W 075°08'0 0.0
2017-Oct-09 18:28N 39°56' W 075°08'0 0.0
2017-Oct-09 17:59N 39°56' W 075°08'0 0.0
2017-Oct-09 17:29N 39°56' W 075°08'0 0.0
2017-Oct-09 16:59N 39°56' W 075°08'0 0.0
2017-Oct-09 16:29N 39°56' W 075°08'0 0.3
2017-Oct-09 15:59N 39°56' W 075°08'0 0.1
2017-Oct-09 15:29N 39°56' W 075°08'0 0.0
2017-Oct-09 14:59N 39°56' W 075°08'0 0.0
2017-Oct-09 14:29N 39°56' W 075°08'0 0.0
2017-Oct-09 13:56N 39°56' W 075°08'0 0.0
2017-Oct-09 13:29N 39°56' W 075°08'0 0.0
2017-Oct-09 12:59N 39°56' W 075°08'0 0.0
2017-Oct-09 12:29N 39°56' W 075°08'0 0.0
2017-Oct-09 11:59N 39°56' W 075°08'0 0.0
2017-Oct-09 11:29N 39°56' W 075°08'0 0.2
2017-Oct-09 10:59N 39°56' W 075°08'0 0.4
2017-Oct-09 10:29N 39°56' W 075°08'0 0.1
2017-Oct-09 09:59N 39°56' W 075°08'0 0.0
2017-Oct-09 09:29N 39°56' W 075°08'0 0.0
2017-Oct-09 08:59N 39°56' W 075°08'0 0.0
2017-Oct-09 08:29N 39°56' W 075°08'0 0.0
2017-Oct-09 07:59N 39°56' W 075°08'0 0.0
2017-Oct-09 07:29N 39°56' W 075°08'0 0.0
2017-Oct-09 06:59N 39°56' W 075°08'0 0.0
2017-Oct-09 06:29N 39°56' W 075°08'0 0.0
2017-Oct-09 05:59N 39°56' W 075°08'0 0.0
2017-Oct-09 05:29N 39°56' W 075°08'0 0.1
2017-Oct-09 04:59N 39°56' W 075°08'0 0.3
2017-Oct-09 04:29N 39°56' W 075°08'0 0.1
2017-Oct-09 03:59N 39°56' W 075°08'0 0.1
2017-Oct-09 03:29N 39°56' W 075°08'0 0.0
2017-Oct-09 02:59N 39°56' W 075°08'0 0.0
2017-Oct-09 02:29N 39°56' W 075°08'0 0.0
2017-Oct-09 01:59N 39°56' W 075°08'0 0.0
2017-Oct-09 01:29N 39°56' W 075°08'0 0.0
2017-Oct-09 00:59N 39°56' W 075°08'0 0.0
2017-Oct-09 00:28N 39°56' W 075°08'0 0.0
2017-Oct-08 23:58N 39°56' W 075°08'0 0.0
2017-Oct-08 23:28N 39°56' W 075°08'0 0.0
2017-Oct-08 22:58N 39°56' W 075°08'0 0.0
2017-Oct-08 22:28N 39°56' W 075°08'0 0.1
2017-Oct-08 21:58N 39°56' W 075°08'0 0.3
2017-Oct-08 21:28N 39°56' W 075°08'0 0.1
2017-Oct-08 20:58N 39°56' W 075°08'0 0.0
2017-Oct-08 20:28N 39°56' W 075°08'0 0.0
2017-Oct-08 19:58N 39°56' W 075°08'0 0.0
2017-Oct-08 19:28N 39°56' W 075°08'0 0.0
2017-Oct-08 18:58N 39°56' W 075°08'0 0.0
2017-Oct-08 18:28N 39°56' W 075°08'0 0.0
2017-Oct-08 17:58N 39°56' W 075°08'  
Track history (hours):
 
Tides and Currents Weather Stations Pressure Air Temp Water Temp Dewpoint Dewpoint Depression Visibility Wind Speed Wind Dir Waves Ship Positions

Palm Coast

Owner: Dann Marine Towing, LC, Chesapeake City, MD. More information available from US FCC via Universal Licensing System and Coast Guard Vessel Documentation Center.

Last reported at 2017-Oct-18 17:57 UTC. Time now 2017-Oct-18 18:15 UTC.
Position N 40°05' W 074°52'.

; draft 3 m.

Type: Tug. MMSI: 367098270.

Date/timePositionNaut miles runAvg speedWind from/ knotsBaromVisibWave heightAir tempDewpointWater temp
2017-Oct-18 17:57N 40°05' W 074°52'0 0.0
2017-Oct-18 17:09N 40°05' W 074°52'0 0.0
2017-Oct-18 16:45N 40°05' W 074°52'0 0.0
2017-Oct-18 15:36N 40°05' W 074°52'0 0.0
2017-Oct-18 15:30N 40°05' W 074°52'0 0.0
2017-Oct-18 14:51N 40°05' W 074°52'0 0.0
2017-Oct-18 13:57N 40°05' W 074°52'0 0.0
2017-Oct-18 13:24N 40°05' W 074°52'0 0.0
2017-Oct-18 13:00N 40°05' W 074°52'0 0.0
2017-Oct-18 12:30N 40°05' W 074°52'0 0.0
2017-Oct-18 12:00N 40°05' W 074°52'0 0.0
2017-Oct-18 11:24N 40°05' W 074°52'0 0.0
2017-Oct-18 11:00N 40°05' W 074°52'0 0.0
2017-Oct-18 10:30N 40°05' W 074°52'0 0.0
2017-Oct-18 08:24N 40°05' W 074°52'0 0.0
2017-Oct-18 08:00N 40°05' W 074°52'0 0.0
2017-Oct-18 06:15N 40°05' W 074°52'0 0.0
2017-Oct-18 06:00N 40°05' W 074°52'0 0.0
2017-Oct-18 05:14N 40°05' W 074°52'0 0.4
2017-Oct-18 05:01N 40°05' W 074°53'3 6.7
2017-Oct-18 04:30N 40°04' W 074°57'4 8.4
2017-Oct-18 03:59N 40°01' W 075°01'4 8.2
2017-Oct-18 03:30N 39°59' W 075°05'4 7.5
2017-Oct-18 03:01N 39°56' W 075°08'0 0.3
2017-Oct-18 02:29N 39°55' W 075°08'0 0.0
2017-Oct-18 01:59N 39°55' W 075°08'0 0.0
2017-Oct-18 01:29N 39°55' W 075°08'0 0.0
2017-Oct-18 00:59N 39°55' W 075°08'1 1.2
2017-Oct-18 00:30N 39°56' W 075°08'0 0.1
2017-Oct-18 00:00N 39°56' W 075°08'0 0.0
2017-Oct-17 23:30N 39°56' W 075°08'0 0.0
2017-Oct-17 23:00N 39°56' W 075°08'0 0.0
2017-Oct-17 22:30N 39°56' W 075°08'0 0.0
2017-Oct-17 22:01N 39°56' W 075°08'0 0.0
2017-Oct-17 21:30N 39°56' W 075°08'0 0.0
2017-Oct-17 21:00N 39°56' W 075°08'0 0.0
2017-Oct-17 20:30N 39°56' W 075°08'0 0.0
2017-Oct-17 20:00N 39°56' W 075°08'0 0.0
2017-Oct-17 19:30N 39°56' W 075°08'0 0.0
2017-Oct-17 19:00N 39°56' W 075°08'0 0.1
2017-Oct-17 18:30N 39°56' W 075°08'0 0.3
2017-Oct-17 18:01N 39°56' W 075°08'0 0.1
2017-Oct-17 17:31N 39°56' W 075°08'0 0.0
2017-Oct-17 17:01N 39°56' W 075°08'0 0.0
2017-Oct-17 16:31N 39°56' W 075°08'0 0.9
2017-Oct-17 16:00N 39°56' W 075°08'3 6.1
2017-Oct-17 15:31N 39°53' W 075°09'4 7.1
2017-Oct-17 15:01N 39°52' W 075°14'4 7.4
2017-Oct-17 14:31N 39°51' W 075°19'4 8.3
2017-Oct-17 14:01N 39°49' W 075°23'5 9.2
2017-Oct-17 13:31N 39°46' W 075°28'5 9.5
2017-Oct-17 13:01N 39°42' W 075°31'5 9.2
2017-Oct-17 12:30N 39°38' W 075°34'4 8.3
2017-Oct-17 12:01N 39°34' W 075°33'4 7.4
2017-Oct-17 11:30N 39°33' W 075°38'4 8.2
2017-Oct-17 11:00N 39°33' W 075°43'4 8.6
2017-Oct-17 10:30N 39°32' W 075°49'4 8.4
2017-Oct-17 10:00N 39°31' W 075°54'4 8.3
2017-Oct-17 09:30N 39°28' W 075°58'4 8.1
2017-Oct-17 09:00N 39°25' W 076°02'4 7.8
2017-Oct-17 08:30N 39°23' W 076°06'4 7.8
2017-Oct-17 08:00N 39°21' W 076°10'4 7.4
2017-Oct-17 07:30N 39°18' W 076°13'4 7.3
2017-Oct-17 07:00N 39°14' W 076°14'4 7.0
2017-Oct-17 06:30N 39°11' W 076°17'4 6.5
2017-Oct-17 05:58N 39°09' W 076°20'3 7.0
2017-Oct-17 05:30N 39°10' W 076°24'4 7.4
2017-Oct-17 05:00N 39°11' W 076°28'4 7.4
2017-Oct-17 04:30N 39°13' W 076°32'2 4.8
2017-Oct-17 04:01N 39°15' W 076°34'0 0.0
2017-Oct-17 03:31N 39°15' W 076°34'0 0.0
2017-Oct-17 02:59N 39°15' W 076°34'0 0.0
2017-Oct-17 02:20N 39°15' W 076°34'0 0.0
2017-Oct-17 01:59N 39°15' W 076°34'0 0.0
2017-Oct-17 01:29N 39°15' W 076°34'0 0.0
2017-Oct-17 00:59N 39°15' W 076°34'0 0.0
2017-Oct-17 00:29N 39°15' W 076°34'0 0.0
2017-Oct-16 23:50N 39°15' W 076°34'0 0.0
2017-Oct-16 23:26N 39°15' W 076°34'0 0.0
2017-Oct-16 23:00N 39°15' W 076°34'0 0.0
2017-Oct-16 22:26N 39°15' W 076°34'0 0.0
2017-Oct-16 21:53N 39°15' W 076°34'0 0.0
2017-Oct-16 21:26N 39°15' W 076°34'0 0.0
2017-Oct-16 20:29N 39°15' W 076°34'0 0.0
2017-Oct-16 19:44N 39°15' W 076°34'0 0.0
2017-Oct-16 19:14N 39°15' W 076°34'0 0.0
2017-Oct-16 18:53N 39°15' W 076°34'0 0.0
2017-Oct-16 18:30N 39°15' W 076°34'0 0.0
2017-Oct-16 17:59N 39°15' W 076°34'0 0.0
2017-Oct-16 17:14N 39°15' W 076°34'0 0.0
2017-Oct-16 16:59N 39°15' W 076°34'0 0.0
2017-Oct-16 16:26N 39°15' W 076°34'0 0.0
2017-Oct-16 15:56N 39°15' W 076°34'0 0.0
2017-Oct-16 15:20N 39°15' W 076°34'0 0.0
2017-Oct-16 14:38N 39°15' W 076°34'0 0.0
2017-Oct-16 13:41N 39°15' W 076°34'0 0.0
2017-Oct-16 13:26N 39°15' W 076°34'0 0.0
2017-Oct-16 12:56N 39°15' W 076°34'0 0.0
2017-Oct-16 12:17N 39°15' W 076°34'0 0.0
2017-Oct-16 11:59N 39°15' W 076°34'0 0.5
2017-Oct-16 11:30N 39°15' W 076°34'1 1.3
2017-Oct-16 10:57N 39°15' W 076°33'0 0.0
2017-Oct-16 10:30N 39°15' W 076°33'0 0.0
2017-Oct-16 10:00N 39°15' W 076°33'0 0.0
2017-Oct-16 09:30N 39°15' W 076°33'0 0.0
2017-Oct-16 09:00N 39°15' W 076°33'0 0.0
2017-Oct-16 08:30N 39°15' W 076°33'0 0.0
2017-Oct-16 08:00N 39°15' W 076°33'0 0.0
2017-Oct-16 07:27N 39°15' W 076°33'0 0.0
2017-Oct-16 07:00N 39°15' W 076°33'0 0.0
2017-Oct-16 06:30N 39°15' W 076°33'1 2.1
2017-Oct-16 06:01N 39°15' W 076°34'0 0.1
2017-Oct-16 05:28N 39°15' W 076°34'0 0.0
2017-Oct-16 04:58N 39°15' W 076°34'0 0.0
2017-Oct-16 04:28N 39°15' W 076°34'0 0.0
2017-Oct-16 03:58N 39°15' W 076°34'0 0.0
2017-Oct-16 03:28N 39°15' W 076°34'0 0.0
2017-Oct-16 02:58N 39°15' W 076°34'0 0.0
2017-Oct-16 02:28N 39°15' W 076°34'0 0.0
2017-Oct-16 01:58N 39°15' W 076°34'0 0.0
2017-Oct-16 01:28N 39°15' W 076°34'0 0.0
2017-Oct-16 00:58N 39°15' W 076°34'0 0.0
2017-Oct-16 00:28N 39°15' W 076°34'0 0.0
2017-Oct-15 23:58N 39°15' W 076°34'0 0.0
2017-Oct-15 23:28N 39°15' W 076°34'0 0.0
2017-Oct-15 22:58N 39°15' W 076°34'1 2.3
2017-Oct-15 22:29N 39°16' W 076°33'0 0.0
2017-Oct-15 21:50N 39°16' W 076°33'0 0.0
2017-Oct-15 21:26N 39°16' W 076°33'0 0.0
2017-Oct-15 20:44N 39°16' W 076°33'0 0.0
2017-Oct-15 20:17N 39°16' W 076°33'0 0.0
2017-Oct-15 19:56N 39°16' W 076°33'0 0.0
2017-Oct-15 19:26N 39°16' W 076°33'0 0.0
2017-Oct-15 18:56N 39°15' W 076°33'0 0.1
2017-Oct-15 18:29N 39°16' W 076°33'0 0.0
2017-Oct-15 17:17N 39°16' W 076°33'0 0.0
2017-Oct-15 16:56N 39°16' W 076°33'0 0.1
2017-Oct-15 16:29N 39°16' W 076°33'0 0.1
2017-Oct-15 15:59N 39°16' W 076°33'0 0.0
2017-Oct-15 15:29N 39°16' W 076°33'0 0.0
2017-Oct-15 14:53N 39°16' W 076°33'0 0.0
2017-Oct-15 13:59N 39°16' W 076°33'0 0.0
2017-Oct-15 13:20N 39°16' W 076°33'0 0.0
2017-Oct-15 12:59N 39°16' W 076°33'0 0.0
2017-Oct-15 12:23N 39°16' W 076°33'0 0.0
2017-Oct-15 11:44N 39°16' W 076°33'0 0.0
2017-Oct-15 11:20N 39°16' W 076°33'0 0.0
2017-Oct-15 10:59N 39°16' W 076°33'0 0.0
2017-Oct-15 10:29N 39°16' W 076°33'0 0.0
2017-Oct-15 09:59N 39°16' W 076°33'0 0.0
2017-Oct-15 09:29N 39°16' W 076°33'0 0.0
2017-Oct-15 08:59N 39°16' W 076°33'0 0.0
2017-Oct-15 08:29N 39°16' W 076°33'0 0.0
2017-Oct-15 07:59N 39°16' W 076°33'0 0.0
2017-Oct-15 07:29N 39°16' W 076°33'0 0.0
2017-Oct-15 06:59N 39°16' W 076°33'0 0.0
2017-Oct-15 06:29N 39°16' W 076°33'0 0.0
2017-Oct-15 05:59N 39°16' W 076°33'0 0.0
2017-Oct-15 05:29N 39°16' W 076°33'0 0.0
2017-Oct-15 04:59N 39°16' W 076°33'0 0.0
2017-Oct-15 04:29N 39°16' W 076°33'0 0.0
2017-Oct-15 03:59N 39°16' W 076°33'0 0.0
2017-Oct-15 03:29N 39°16' W 076°33'0 0.0
2017-Oct-15 02:59N 39°16' W 076°33'0 0.0
2017-Oct-15 02:29N 39°16' W 076°33'0 0.0
2017-Oct-15 01:59N 39°16' W 076°33'0 0.0
2017-Oct-15 01:29N 39°16' W 076°33'0 0.0
2017-Oct-15 00:59N 39°16' W 076°33'0 0.0
2017-Oct-15 00:29N 39°16' W 076°33'0 0.0
2017-Oct-14 23:59N 39°16' W 076°33'0 0.0
2017-Oct-14 23:29N 39°16' W 076°33'0 0.0
2017-Oct-14 22:59N 39°16' W 076°33'0 0.0
2017-Oct-14 22:26N 39°16' W 076°33'0 0.0
2017-Oct-14 21:59N 39°16' W 076°33'0 0.0
2017-Oct-14 21:29N 39°16' W 076°33'0 0.0
2017-Oct-14 20:59N 39°16' W 076°33'0 0.0
2017-Oct-14 20:29N 39°16' W 076°33'0 0.0
2017-Oct-14 19:59N 39°16' W 076°33'0 0.0
2017-Oct-14 19:29N 39°16' W 076°33'0 0.0
2017-Oct-14 18:59N 39°16' W 076°33'0 0.0
2017-Oct-14 18:29N 39°16' W 076°33'0 0.0
2017-Oct-14 17:59N 39°16' W 076°33'0 0.0
2017-Oct-14 17:29N 39°16' W 076°33'0 0.0
2017-Oct-14 16:59N 39°16' W 076°33'0 0.0
2017-Oct-14 16:29N 39°15' W 076°33'0 0.0
2017-Oct-14 15:59N 39°16' W 076°33'0 0.0
2017-Oct-14 15:29N 39°16' W 076°33'0 0.0
2017-Oct-14 14:59N 39°16' W 076°33'0 0.0
2017-Oct-14 14:29N 39°16' W 076°33'2 3.6
2017-Oct-14 14:00N 39°16' W 076°36'0 0.6
2017-Oct-14 13:29N 39°16' W 076°36'2 3.5
2017-Oct-14 12:59N 39°15' W 076°34'0 0.0
2017-Oct-14 12:29N 39°15' W 076°34'0 0.0
2017-Oct-14 11:56N 39°15' W 076°34'0 0.0
2017-Oct-14 11:29N 39°15' W 076°34'0 0.0
2017-Oct-14 10:59N 39°15' W 076°34'0 0.0
2017-Oct-14 10:29N 39°15' W 076°34'0 0.0
2017-Oct-14 09:59N 39°15' W 076°34'0 0.0
2017-Oct-14 09:29N 39°15' W 076°34'0 0.0
2017-Oct-14 08:59N 39°15' W 076°34'0 0.0
2017-Oct-14 08:29N 39°15' W 076°34'0 0.0
2017-Oct-14 07:44N 39°15' W 076°34'0 0.0
2017-Oct-14 07:20N 39°15' W 076°34'0 0.0
2017-Oct-14 06:50N 39°15' W 076°34'0 0.0
2017-Oct-14 06:26N 39°15' W 076°34'1 2.3
2017-Oct-14 05:57N 39°16' W 076°33'0 0.0
2017-Oct-14 05:30N 39°16' W 076°33'0 0.0
2017-Oct-14 05:00N 39°16' W 076°33'0 0.0
2017-Oct-14 04:30N 39°16' W 076°33'0 0.0
2017-Oct-14 03:57N 39°16' W 076°33'0 0.0
2017-Oct-14 03:30N 39°16' W 076°33'0 0.0
2017-Oct-14 03:00N 39°16' W 076°33'0 0.0
2017-Oct-14 02:18N 39°16' W 076°33'0 0.0
2017-Oct-13 22:27N 39°16' W 076°33'0 0.0
2017-Oct-13 22:00N 39°16' W 076°33'0 0.0
2017-Oct-13 21:30N 39°16' W 076°33'0 0.0
2017-Oct-13 21:00N 39°16' W 076°33'0 0.0
2017-Oct-13 20:30N 39°16' W 076°33'0 0.0
2017-Oct-13 19:51N 39°16' W 076°33'0 0.0
2017-Oct-13 19:30N 39°16' W 076°33'0 0.0
2017-Oct-13 19:00N 39°16' W 076°33'0 0.0
2017-Oct-13 18:30N 39°16' W 076°33'0 0.0
2017-Oct-13 18:00N 39°16' W 076°33'0 0.0
2017-Oct-13 17:30N 39°16' W 076°33'1 2.0
2017-Oct-13 16:55N 39°15' W 076°34'0 0.0
2017-Oct-13 16:28N 39°15' W 076°34'0 0.0
2017-Oct-13 15:58N 39°15' W 076°34'0 0.0
2017-Oct-13 15:28N 39°15' W 076°34'0 0.0
2017-Oct-13 14:58N 39°15' W 076°34'0 0.0
2017-Oct-13 14:28N 39°15' W 076°34'0 0.8
2017-Oct-13 14:00N 39°15' W 076°34'1 1.5
2017-Oct-13 13:29N 39°16' W 076°33'0 0.0
2017-Oct-13 12:59N 39°16' W 076°33'0 0.0
2017-Oct-13 12:29N 39°16' W 076°33'0 0.0
2017-Oct-13 11:59N 39°16' W 076°33'0 0.0
2017-Oct-13 11:29N 39°16' W 076°33'0 0.0
2017-Oct-13 10:59N 39°16' W 076°33'0 0.0
2017-Oct-13 10:29N 39°16' W 076°33'0 0.0
2017-Oct-13 09:59N 39°16' W 076°33'0 0.0
2017-Oct-13 09:29N 39°16' W 076°33'0 0.0
2017-Oct-13 08:59N 39°16' W 076°33'0 0.0
2017-Oct-13 08:29N 39°16' W 076°33'0 0.1
2017-Oct-13 07:59N 39°16' W 076°33'0 0.1
2017-Oct-13 07:29N 39°16' W 076°33'0 0.0
2017-Oct-13 06:59N 39°16' W 076°33'0 0.0
2017-Oct-13 06:29N 39°16' W 076°33'0 0.0
2017-Oct-13 05:59N 39°16' W 076°33'0 0.0
2017-Oct-13 05:29N 39°16' W 076°33'0 0.0
2017-Oct-13 04:59N 39°16' W 076°33'0 0.0
2017-Oct-13 04:29N 39°16' W 076°33'0 0.0
2017-Oct-12 14:39N 39°16' W 076°33'0 0.0
2017-Oct-12 14:30N 39°16' W 076°33'0 0.0
2017-Oct-12 14:00N 39°16' W 076°33'0 0.0
2017-Oct-12 13:30N 39°16' W 076°33'0 0.0
2017-Oct-12 13:00N 39°16' W 076°33'0 0.0
2017-Oct-12 12:24N 39°16' W 076°33'0 0.0
2017-Oct-12 11:36N 39°16' W 076°33'0 0.1
2017-Oct-12 11:30N 39°16' W 076°33'1 1.8
2017-Oct-12 10:56N 39°15' W 076°34'0 1.0
2017-Oct-12 10:30N 39°15' W 076°34'1 1.2
2017-Oct-12 10:00N 39°15' W 076°33'0 0.3
2017-Oct-12 09:30N 39°15' W 076°33'0 0.0
2017-Oct-12 09:00N 39°15' W 076°33'0 0.0
2017-Oct-12 08:27N 39°15' W 076°33'0 0.0
2017-Oct-12 07:57N 39°15' W 076°33'0 0.0
2017-Oct-12 07:30N 39°15' W 076°33'0 0.0
2017-Oct-12 06:57N 39°15' W 076°33'0 0.1
2017-Oct-12 06:27N 39°15' W 076°33'0 0.0
2017-Oct-12 05:57N 39°15' W 076°33'0 0.0
2017-Oct-12 05:30N 39°15' W 076°33'0 0.0
2017-Oct-12 04:57N 39°15' W 076°33'0 0.0
2017-Oct-12 04:30N 39°15' W 076°33'0 0.0
2017-Oct-12 03:57N 39°15' W 076°33'0 0.0
2017-Oct-12 03:30N 39°15' W 076°33'0 0.0
2017-Oct-12 03:00N 39°15' W 076°33'0 0.0
2017-Oct-12 02:30N 39°15' W 076°33'0 0.0
2017-Oct-12 02:00N 39°15' W 076°33'0 0.0
2017-Oct-12 01:27N 39°15' W 076°33'0 0.0
2017-Oct-12 01:00N 39°15' W 076°33'0 0.0
2017-Oct-12 00:30N 39°15' W 076°33'0 0.0
2017-Oct-12 00:00N 39°15' W 076°33'0 0.0
2017-Oct-11 23:30N 39°15' W 076°33'0 0.0
2017-Oct-11 23:00N 39°15' W 076°33'0 0.0
2017-Oct-11 22:24N 39°15' W 076°33'0 0.0
2017-Oct-11 22:00N 39°15' W 076°33'0 0.0
2017-Oct-11 21:27N 39°15' W 076°33'0 0.0
2017-Oct-11 21:00N 39°15' W 076°33'0 0.0
2017-Oct-11 20:30N 39°15' W 076°33'0 0.0
2017-Oct-11 20:00N 39°15' W 076°33'0 0.0
2017-Oct-11 19:30N 39°15' W 076°33'0 0.0
2017-Oct-11 19:00N 39°15' W 076°33'0 0.0
2017-Oct-11 18:27N 39°15' W 076°33'0 0.0
2017-Oct-11 18:00N 39°15' W 076°33'0 0.0
2017-Oct-11 17:30N 39°15' W 076°33'0 0.0
2017-Oct-11 17:00N 39°15' W 076°33'92 4.0
2017-Oct-10 17:57N 40°05' W 074°52'0 0.0
2017-Oct-10 17:27N 40°05' W 074°52'0 0.0
2017-Oct-10 17:00N 40°05' W 074°52'0 0.0
2017-Oct-10 16:27N 40°05' W 074°52'0 0.0
2017-Oct-10 15:57N 40°05' W 074°52'0 0.0
2017-Oct-10 15:27N 40°05' W 074°52'0 0.0
2017-Oct-10 14:45N 40°05' W 074°52'0 0.0
2017-Oct-10 13:57N 40°05' W 074°52'0 0.0
2017-Oct-10 13:12N 40°05' W 074°52'0 0.0
2017-Oct-10 12:51N 40°05' W 074°52'0 0.0
2017-Oct-10 12:27N 40°05' W 074°52'0 0.0
2017-Oct-10 12:00N 40°05' W 074°52'0 0.0
2017-Oct-10 11:30N 40°05' W 074°52'0 0.0
2017-Oct-10 09:22N 40°05' W 074°52'0 0.2
2017-Oct-10 09:00N 40°05' W 074°53'3 5.0
2017-Oct-10 08:30N 40°04' W 074°56'3 6.8
2017-Oct-10 08:01N 40°02' W 074°59'3 7.0
2017-Oct-10 07:31N 40°00' W 075°03'4 7.4
2017-Oct-10 07:00N 39°58' W 075°07'2 4.2
2017-Oct-10 06:31N 39°56' W 075°08'0 0.1
2017-Oct-10 05:59N 39°56' W 075°08'0 0.3
2017-Oct-10 05:29N 39°56' W 075°08'0 0.1
2017-Oct-10 04:59N 39°56' W 075°08'0 0.0
2017-Oct-10 04:29N 39°56' W 075°08'0 0.0
2017-Oct-10 03:59N 39°56' W 075°08'0 0.0
2017-Oct-10 03:29N 39°56' W 075°08'0 0.0
2017-Oct-10 02:59N 39°56' W 075°08'0 0.0
2017-Oct-10 02:29N 39°56' W 075°08'0 0.0
2017-Oct-10 01:59N 39°56' W 075°08'0 0.0
2017-Oct-10 01:29N 39°56' W 075°08'0 0.0
2017-Oct-10 00:59N 39°56' W 075°08'0 0.0
2017-Oct-10 00:29N 39°56' W 075°08'0 0.0
2017-Oct-09 23:59N 39°56' W 075°08'0 0.0
2017-Oct-09 23:29N 39°56' W 075°08'0 0.1
2017-Oct-09 22:59N 39°56' W 075°08'0 0.3
2017-Oct-09 22:29N 39°56' W 075°08'0 0.1
2017-Oct-09 21:59N 39°56' W 075°08'0 0.0
2017-Oct-09 21:29N 39°56' W 075°08'0 0.0
2017-Oct-09 20:59N 39°56' W 075°08'0 0.0
2017-Oct-09 20:29N 39°56' W 075°08'0 0.0
2017-Oct-09 19:59N 39°56' W 075°08'0 0.0
2017-Oct-09 19:29N 39°56' W 075°08'0 0.0
2017-Oct-09 18:59N 39°56' W 075°08'0 0.0
2017-Oct-09 18:28N 39°56' W 075°08'0 0.0
2017-Oct-09 17:59N 39°56' W 075°08'0 0.0
2017-Oct-09 17:29N 39°56' W 075°08'0 0.0
2017-Oct-09 16:59N 39°56' W 075°08'0 0.0
2017-Oct-09 16:29N 39°56' W 075°08'0 0.3
2017-Oct-09 15:59N 39°56' W 075°08'0 0.1
2017-Oct-09 15:29N 39°56' W 075°08'0 0.0
2017-Oct-09 14:59N 39°56' W 075°08'0 0.0
2017-Oct-09 14:29N 39°56' W 075°08'0 0.0
2017-Oct-09 13:56N 39°56' W 075°08'0 0.0
2017-Oct-09 13:29N 39°56' W 075°08'0 0.0
2017-Oct-09 12:59N 39°56' W 075°08'0 0.0
2017-Oct-09 12:29N 39°56' W 075°08'0 0.0
2017-Oct-09 11:59N 39°56' W 075°08'0 0.0
2017-Oct-09 11:29N 39°56' W 075°08'0 0.2
2017-Oct-09 10:59N 39°56' W 075°08'0 0.4
2017-Oct-09 10:29N 39°56' W 075°08'0 0.1
2017-Oct-09 09:59N 39°56' W 075°08'0 0.0
2017-Oct-09 09:29N 39°56' W 075°08'0 0.0
2017-Oct-09 08:59N 39°56' W 075°08'0 0.0
2017-Oct-09 08:29N 39°56' W 075°08'0 0.0
2017-Oct-09 07:59N 39°56' W 075°08'0 0.0
2017-Oct-09 07:29N 39°56' W 075°08'0 0.0
2017-Oct-09 06:59N 39°56' W 075°08'0 0.0
2017-Oct-09 06:29N 39°56' W 075°08'0 0.0
2017-Oct-09 05:59N 39°56' W 075°08'0 0.0
2017-Oct-09 05:29N 39°56' W 075°08'0 0.1
2017-Oct-09 04:59N 39°56' W 075°08'0 0.3
2017-Oct-09 04:29N 39°56' W 075°08'0 0.1
2017-Oct-09 03:59N 39°56' W 075°08'0 0.1
2017-Oct-09 03:29N 39°56' W 075°08'0 0.0
2017-Oct-09 02:59N 39°56' W 075°08'0 0.0
2017-Oct-09 02:29N 39°56' W 075°08'0 0.0
2017-Oct-09 01:59N 39°56' W 075°08'0 0.0
2017-Oct-09 01:29N 39°56' W 075°08'0 0.0
2017-Oct-09 00:59N 39°56' W 075°08'0 0.0
2017-Oct-09 00:28N 39°56' W 075°08'0 0.0
2017-Oct-08 23:58N 39°56' W 075°08'0 0.0
2017-Oct-08 23:28N 39°56' W 075°08'0 0.0
2017-Oct-08 22:58N 39°56' W 075°08'0 0.0
2017-Oct-08 22:28N 39°56' W 075°08'0 0.1
2017-Oct-08 21:58N 39°56' W 075°08'0 0.3
2017-Oct-08 21:28N 39°56' W 075°08'0 0.1
2017-Oct-08 20:58N 39°56' W 075°08'0 0.0
2017-Oct-08 20:28N 39°56' W 075°08'0 0.0
2017-Oct-08 19:58N 39°56' W 075°08'0 0.0
2017-Oct-08 19:28N 39°56' W 075°08'0 0.0
2017-Oct-08 18:58N 39°56' W 075°08'0 0.0
2017-Oct-08 18:28N 39°56' W 075°08'0 0.0
2017-Oct-08 17:58N 39°56' W 075°08'  

Dump ship's entire track history